sensor_id;sensor_type;location;lat;lon;timestamp;P1;durP1;ratioP1;P2;durP2;ratioP2
74632;SDS011;63139;52.018;8.552;2023-03-03T00:00:13;21.17;;;11.30;;
74632;SDS011;63139;52.018;8.552;2023-03-03T00:02:41;18.80;;;10.35;;
74632;SDS011;63139;52.018;8.552;2023-03-03T00:05:09;19.05;;;10.52;;
74632;SDS011;63139;52.018;8.552;2023-03-03T00:07:42;21.48;;;11.32;;
74632;SDS011;63139;52.018;8.552;2023-03-03T00:10:11;22.48;;;11.93;;
74632;SDS011;63139;52.018;8.552;2023-03-03T00:12:44;21.27;;;11.35;;
74632;SDS011;63139;52.018;8.552;2023-03-03T00:15:14;24.02;;;12.05;;
74632;SDS011;63139;52.018;8.552;2023-03-03T00:17:45;23.98;;;13.00;;
74632;SDS011;63139;52.018;8.552;2023-03-03T00:20:26;24.40;;;11.80;;
74632;SDS011;63139;52.018;8.552;2023-03-03T00:22:57;23.60;;;12.93;;
74632;SDS011;63139;52.018;8.552;2023-03-03T00:25:32;25.13;;;12.98;;
74632;SDS011;63139;52.018;8.552;2023-03-03T00:28:00;23.23;;;12.45;;
74632;SDS011;63139;52.018;8.552;2023-03-03T00:30:34;21.33;;;11.68;;
74632;SDS011;63139;52.018;8.552;2023-03-03T00:33:01;25.42;;;12.82;;
74632;SDS011;63139;52.018;8.552;2023-03-03T00:35:45;22.23;;;11.25;;
74632;SDS011;63139;52.018;8.552;2023-03-03T00:38:13;21.77;;;11.70;;
74632;SDS011;63139;52.018;8.552;2023-03-03T00:40:46;21.27;;;11.52;;
74632;SDS011;63139;52.018;8.552;2023-03-03T00:43:17;19.42;;;10.85;;
74632;SDS011;63139;52.018;8.552;2023-03-03T00:45:47;23.33;;;12.60;;
74632;SDS011;63139;52.018;8.552;2023-03-03T00:48:23;21.50;;;11.45;;
74632;SDS011;63139;52.018;8.552;2023-03-03T00:50:53;20.05;;;10.75;;
74632;SDS011;63139;52.018;8.552;2023-03-03T00:53:22;22.77;;;11.15;;
74632;SDS011;63139;52.018;8.552;2023-03-03T00:55:52;21.52;;;10.98;;
74632;SDS011;63139;52.018;8.552;2023-03-03T00:58:21;21.00;;;11.32;;
74632;SDS011;63139;52.018;8.552;2023-03-03T01:00:51;19.25;;;10.05;;
74632;SDS011;63139;52.018;8.552;2023-03-03T01:03:25;23.58;;;12.18;;
74632;SDS011;63139;52.018;8.552;2023-03-03T01:05:53;22.13;;;11.63;;
74632;SDS011;63139;52.018;8.552;2023-03-03T01:08:21;21.60;;;11.57;;
74632;SDS011;63139;52.018;8.552;2023-03-03T01:10:50;23.00;;;11.73;;
74632;SDS011;63139;52.018;8.552;2023-03-03T01:13:23;25.92;;;13.02;;
74632;SDS011;63139;52.018;8.552;2023-03-03T01:15:53;27.08;;;12.60;;
74632;SDS011;63139;52.018;8.552;2023-03-03T01:18:21;27.35;;;14.13;;
74632;SDS011;63139;52.018;8.552;2023-03-03T01:20:50;26.83;;;13.93;;
74632;SDS011;63139;52.018;8.552;2023-03-03T01:23:17;23.30;;;11.77;;
74632;SDS011;63139;52.018;8.552;2023-03-03T01:25:45;23.55;;;12.85;;
74632;SDS011;63139;52.018;8.552;2023-03-03T01:28:16;23.73;;;12.13;;
74632;SDS011;63139;52.018;8.552;2023-03-03T01:30:44;22.83;;;12.52;;
74632;SDS011;63139;52.018;8.552;2023-03-03T01:33:11;21.80;;;10.95;;
74632;SDS011;63139;52.018;8.552;2023-03-03T01:35:42;25.63;;;13.30;;
74632;SDS011;63139;52.018;8.552;2023-03-03T01:38:10;26.08;;;13.38;;
74632;SDS011;63139;52.018;8.552;2023-03-03T01:40:39;23.48;;;12.40;;
74632;SDS011;63139;52.018;8.552;2023-03-03T01:43:07;21.15;;;11.88;;
74632;SDS011;63139;52.018;8.552;2023-03-03T01:45:41;26.13;;;13.05;;
74632;SDS011;63139;52.018;8.552;2023-03-03T01:48:33;26.38;;;13.15;;
74632;SDS011;63139;52.018;8.552;2023-03-03T01:51:05;23.90;;;12.45;;
74632;SDS011;63139;52.018;8.552;2023-03-03T01:53:42;26.33;;;14.02;;
74632;SDS011;63139;52.018;8.552;2023-03-03T01:56:14;37.78;;;16.42;;
74632;SDS011;63139;52.018;8.552;2023-03-03T01:58:43;37.83;;;16.90;;
74632;SDS011;63139;52.018;8.552;2023-03-03T02:01:14;41.45;;;17.95;;
74632;SDS011;63139;52.018;8.552;2023-03-03T02:03:47;35.88;;;16.00;;
74632;SDS011;63139;52.018;8.552;2023-03-03T02:06:17;44.15;;;17.50;;
74632;SDS011;63139;52.018;8.552;2023-03-03T02:08:50;43.28;;;18.00;;
74632;SDS011;63139;52.018;8.552;2023-03-03T02:11:22;41.08;;;18.27;;
74632;SDS011;63139;52.018;8.552;2023-03-03T02:13:49;42.10;;;17.90;;
74632;SDS011;63139;52.018;8.552;2023-03-03T02:16:18;41.50;;;18.05;;
74632;SDS011;63139;52.018;8.552;2023-03-03T02:18:46;37.72;;;16.45;;
74632;SDS011;63139;52.018;8.552;2023-03-03T02:21:15;39.05;;;17.15;;
74632;SDS011;63139;52.018;8.552;2023-03-03T02:23:47;44.80;;;18.17;;
74632;SDS011;63139;52.018;8.552;2023-03-03T02:26:22;43.65;;;17.75;;
74632;SDS011;63139;52.018;8.552;2023-03-03T02:28:55;38.17;;;16.63;;
74632;SDS011;63139;52.018;8.552;2023-03-03T02:31:24;38.30;;;15.93;;
74632;SDS011;63139;52.018;8.552;2023-03-03T02:33:54;36.83;;;17.33;;
74632;SDS011;63139;52.018;8.552;2023-03-03T02:36:23;39.67;;;18.08;;
74632;SDS011;63139;52.018;8.552;2023-03-03T02:38:54;45.80;;;18.67;;
74632;SDS011;63139;52.018;8.552;2023-03-03T02:41:31;40.63;;;18.30;;
74632;SDS011;63139;52.018;8.552;2023-03-03T02:44:03;45.20;;;18.05;;
74632;SDS011;63139;52.018;8.552;2023-03-03T02:46:33;45.90;;;19.85;;
74632;SDS011;63139;52.018;8.552;2023-03-03T02:49:03;53.95;;;21.38;;
74632;SDS011;63139;52.018;8.552;2023-03-03T02:51:33;52.75;;;21.08;;
74632;SDS011;63139;52.018;8.552;2023-03-03T02:54:02;53.80;;;21.15;;
74632;SDS011;63139;52.018;8.552;2023-03-03T02:56:33;50.85;;;21.42;;
74632;SDS011;63139;52.018;8.552;2023-03-03T02:59:02;48.03;;;18.83;;
74632;SDS011;63139;52.018;8.552;2023-03-03T03:01:35;53.03;;;20.10;;
74632;SDS011;63139;52.018;8.552;2023-03-03T03:04:08;49.00;;;19.67;;
74632;SDS011;63139;52.018;8.552;2023-03-03T03:06:41;52.95;;;20.17;;
74632;SDS011;63139;52.018;8.552;2023-03-03T03:09:10;48.78;;;18.75;;
74632;SDS011;63139;52.018;8.552;2023-03-03T03:11:40;47.33;;;18.08;;
74632;SDS011;63139;52.018;8.552;2023-03-03T03:14:10;45.50;;;16.85;;
74632;SDS011;63139;52.018;8.552;2023-03-03T03:16:39;38.78;;;15.73;;
74632;SDS011;63139;52.018;8.552;2023-03-03T03:19:09;42.15;;;16.80;;
74632;SDS011;63139;52.018;8.552;2023-03-03T03:21:37;53.35;;;18.48;;
74632;SDS011;63139;52.018;8.552;2023-03-03T03:24:06;44.53;;;16.33;;
74632;SDS011;63139;52.018;8.552;2023-03-03T03:26:36;51.08;;;17.02;;
74632;SDS011;63139;52.018;8.552;2023-03-03T03:29:06;40.53;;;15.20;;
74632;SDS011;63139;52.018;8.552;2023-03-03T03:31:34;46.92;;;16.33;;
74632;SDS011;63139;52.018;8.552;2023-03-03T03:34:02;49.33;;;17.33;;
74632;SDS011;63139;52.018;8.552;2023-03-03T03:36:30;45.85;;;16.02;;
74632;SDS011;63139;52.018;8.552;2023-03-03T03:38:58;42.35;;;14.23;;
74632;SDS011;63139;52.018;8.552;2023-03-03T03:41:28;42.15;;;16.90;;
74632;SDS011;63139;52.018;8.552;2023-03-03T03:43:55;48.45;;;17.27;;
74632;SDS011;63139;52.018;8.552;2023-03-03T03:46:25;49.58;;;17.63;;
74632;SDS011;63139;52.018;8.552;2023-03-03T03:48:53;47.78;;;18.00;;
74632;SDS011;63139;52.018;8.552;2023-03-03T03:51:21;47.13;;;17.38;;
74632;SDS011;63139;52.018;8.552;2023-03-03T03:53:49;57.40;;;19.63;;
74632;SDS011;63139;52.018;8.552;2023-03-03T03:56:17;56.83;;;18.77;;
74632;SDS011;63139;52.018;8.552;2023-03-03T03:58:48;54.10;;;18.13;;
74632;SDS011;63139;52.018;8.552;2023-03-03T04:01:16;51.17;;;16.98;;
74632;SDS011;63139;52.018;8.552;2023-03-03T04:03:48;57.08;;;18.20;;
74632;SDS011;63139;52.018;8.552;2023-03-03T04:06:19;49.00;;;16.25;;
74632;SDS011;63139;52.018;8.552;2023-03-03T04:08:48;55.97;;;17.85;;
74632;SDS011;63139;52.018;8.552;2023-03-03T04:11:18;53.53;;;17.67;;
74632;SDS011;63139;52.018;8.552;2023-03-03T04:13:46;54.85;;;18.35;;
74632;SDS011;63139;52.018;8.552;2023-03-03T04:16:14;55.72;;;17.63;;
74632;SDS011;63139;52.018;8.552;2023-03-03T04:18:42;53.58;;;17.75;;
74632;SDS011;63139;52.018;8.552;2023-03-03T04:21:15;55.53;;;17.95;;
74632;SDS011;63139;52.018;8.552;2023-03-03T04:23:44;54.25;;;17.30;;
74632;SDS011;63139;52.018;8.552;2023-03-03T04:26:12;52.97;;;16.85;;
74632;SDS011;63139;52.018;8.552;2023-03-03T04:28:42;54.15;;;17.17;;
74632;SDS011;63139;52.018;8.552;2023-03-03T04:31:10;50.83;;;16.13;;
74632;SDS011;63139;52.018;8.552;2023-03-03T04:33:41;50.63;;;14.77;;
74632;SDS011;63139;52.018;8.552;2023-03-03T04:36:09;48.47;;;15.77;;
74632;SDS011;63139;52.018;8.552;2023-03-03T04:38:38;44.53;;;15.05;;
74632;SDS011;63139;52.018;8.552;2023-03-03T04:41:06;49.13;;;15.00;;
74632;SDS011;63139;52.018;8.552;2023-03-03T04:43:36;54.67;;;16.20;;
74632;SDS011;63139;52.018;8.552;2023-03-03T04:46:04;49.95;;;16.30;;
74632;SDS011;63139;52.018;8.552;2023-03-03T04:48:33;53.75;;;15.40;;
74632;SDS011;63139;52.018;8.552;2023-03-03T04:51:01;52.03;;;15.57;;
74632;SDS011;63139;52.018;8.552;2023-03-03T04:53:32;51.15;;;15.27;;
74632;SDS011;63139;52.018;8.552;2023-03-03T04:56:01;65.03;;;19.38;;
74632;SDS011;63139;52.018;8.552;2023-03-03T04:58:30;57.85;;;16.77;;
74632;SDS011;63139;52.018;8.552;2023-03-03T05:00:58;63.17;;;18.90;;
74632;SDS011;63139;52.018;8.552;2023-03-03T05:03:27;59.47;;;17.80;;
74632;SDS011;63139;52.018;8.552;2023-03-03T05:05:55;60.78;;;17.60;;
74632;SDS011;63139;52.018;8.552;2023-03-03T05:08:23;56.83;;;17.13;;
74632;SDS011;63139;52.018;8.552;2023-03-03T05:10:51;59.40;;;17.15;;
74632;SDS011;63139;52.018;8.552;2023-03-03T05:13:20;66.20;;;18.42;;
74632;SDS011;63139;52.018;8.552;2023-03-03T05:15:49;62.38;;;19.15;;
74632;SDS011;63139;52.018;8.552;2023-03-03T05:18:17;57.42;;;17.88;;
74632;SDS011;63139;52.018;8.552;2023-03-03T05:20:45;61.17;;;17.52;;
74632;SDS011;63139;52.018;8.552;2023-03-03T05:23:13;53.30;;;16.05;;
74632;SDS011;63139;52.018;8.552;2023-03-03T05:25:41;57.80;;;16.88;;
74632;SDS011;63139;52.018;8.552;2023-03-03T05:28:09;60.50;;;18.58;;
74632;SDS011;63139;52.018;8.552;2023-03-03T05:30:38;54.42;;;16.33;;
74632;SDS011;63139;52.018;8.552;2023-03-03T05:33:06;54.13;;;16.30;;
74632;SDS011;63139;52.018;8.552;2023-03-03T05:35:34;60.22;;;17.02;;
74632;SDS011;63139;52.018;8.552;2023-03-03T05:38:02;67.93;;;19.27;;
74632;SDS011;63139;52.018;8.552;2023-03-03T05:40:30;72.40;;;19.70;;
74632;SDS011;63139;52.018;8.552;2023-03-03T05:42:58;63.88;;;16.80;;
74632;SDS011;63139;52.018;8.552;2023-03-03T05:45:26;62.95;;;19.13;;
74632;SDS011;63139;52.018;8.552;2023-03-03T05:47:55;72.15;;;20.40;;
74632;SDS011;63139;52.018;8.552;2023-03-03T05:50:23;69.57;;;20.48;;
74632;SDS011;63139;52.018;8.552;2023-03-03T05:52:51;66.18;;;18.73;;
74632;SDS011;63139;52.018;8.552;2023-03-03T05:55:19;64.57;;;17.92;;
74632;SDS011;63139;52.018;8.552;2023-03-03T05:57:47;63.45;;;18.17;;
74632;SDS011;63139;52.018;8.552;2023-03-03T06:00:15;58.80;;;16.63;;
74632;SDS011;63139;52.018;8.552;2023-03-03T06:02:44;65.15;;;17.55;;
74632;SDS011;63139;52.018;8.552;2023-03-03T06:05:13;65.22;;;18.25;;
74632;SDS011;63139;52.018;8.552;2023-03-03T06:07:41;60.38;;;17.38;;
74632;SDS011;63139;52.018;8.552;2023-03-03T06:10:10;70.55;;;19.92;;
74632;SDS011;63139;52.018;8.552;2023-03-03T06:12:40;63.45;;;18.25;;
74632;SDS011;63139;52.018;8.552;2023-03-03T06:15:08;68.53;;;19.35;;
74632;SDS011;63139;52.018;8.552;2023-03-03T06:17:37;69.18;;;18.77;;
74632;SDS011;63139;52.018;8.552;2023-03-03T06:20:05;57.38;;;17.15;;
74632;SDS011;63139;52.018;8.552;2023-03-03T06:22:35;59.20;;;17.00;;
74632;SDS011;63139;52.018;8.552;2023-03-03T06:25:03;55.80;;;15.98;;
74632;SDS011;63139;52.018;8.552;2023-03-03T06:27:32;52.35;;;15.65;;
74632;SDS011;63139;52.018;8.552;2023-03-03T06:30:00;60.72;;;17.90;;
74632;SDS011;63139;52.018;8.552;2023-03-03T06:32:28;64.07;;;19.27;;
74632;SDS011;63139;52.018;8.552;2023-03-03T06:34:56;54.35;;;15.90;;
74632;SDS011;63139;52.018;8.552;2023-03-03T06:37:23;57.35;;;18.15;;
74632;SDS011;63139;52.018;8.552;2023-03-03T06:39:53;60.05;;;17.30;;
74632;SDS011;63139;52.018;8.552;2023-03-03T06:42:20;53.97;;;16.20;;
74632;SDS011;63139;52.018;8.552;2023-03-03T06:44:50;52.90;;;17.05;;
74632;SDS011;63139;52.018;8.552;2023-03-03T06:47:18;51.83;;;15.52;;
74632;SDS011;63139;52.018;8.552;2023-03-03T06:49:45;59.45;;;16.73;;
74632;SDS011;63139;52.018;8.552;2023-03-03T06:52:14;49.45;;;15.02;;
74632;SDS011;63139;52.018;8.552;2023-03-03T06:54:46;51.10;;;16.13;;
74632;SDS011;63139;52.018;8.552;2023-03-03T06:57:16;53.33;;;16.83;;
74632;SDS011;63139;52.018;8.552;2023-03-03T06:59:50;56.42;;;16.90;;
74632;SDS011;63139;52.018;8.552;2023-03-03T07:02:20;57.15;;;17.08;;
74632;SDS011;63139;52.018;8.552;2023-03-03T07:04:49;49.50;;;15.57;;
74632;SDS011;63139;52.018;8.552;2023-03-03T07:07:17;68.10;;;19.42;;
74632;SDS011;63139;52.018;8.552;2023-03-03T07:09:47;60.92;;;17.55;;
74632;SDS011;63139;52.018;8.552;2023-03-03T07:12:18;61.13;;;17.00;;
74632;SDS011;63139;52.018;8.552;2023-03-03T07:14:49;66.00;;;19.50;;
74632;SDS011;63139;52.018;8.552;2023-03-03T07:17:22;60.58;;;16.83;;
74632;SDS011;63139;52.018;8.552;2023-03-03T07:19:51;67.07;;;18.60;;
74632;SDS011;63139;52.018;8.552;2023-03-03T07:22:21;63.72;;;17.48;;
74632;SDS011;63139;52.018;8.552;2023-03-03T07:24:56;69.10;;;19.77;;
74632;SDS011;63139;52.018;8.552;2023-03-03T07:27:29;68.30;;;18.63;;
74632;SDS011;63139;52.018;8.552;2023-03-03T07:30:01;62.65;;;19.10;;
74632;SDS011;63139;52.018;8.552;2023-03-03T07:32:48;64.45;;;18.42;;
74632;SDS011;63139;52.018;8.552;2023-03-03T07:35:29;67.55;;;19.65;;
74632;SDS011;63139;52.018;8.552;2023-03-03T07:38:10;72.65;;;21.25;;
74632;SDS011;63139;52.018;8.552;2023-03-03T07:40:47;71.80;;;20.33;;
74632;SDS011;63139;52.018;8.552;2023-03-03T07:43:26;83.50;;;23.08;;
74632;SDS011;63139;52.018;8.552;2023-03-03T07:45:59;70.03;;;19.75;;
74632;SDS011;63139;52.018;8.552;2023-03-03T07:48:33;81.43;;;21.67;;
74632;SDS011;63139;52.018;8.552;2023-03-03T07:51:10;68.43;;;19.13;;
74632;SDS011;63139;52.018;8.552;2023-03-03T07:53:45;61.60;;;18.95;;
74632;SDS011;63139;52.018;8.552;2023-03-03T07:56:20;68.85;;;19.83;;
74632;SDS011;63139;52.018;8.552;2023-03-03T07:58:55;66.45;;;21.20;;
74632;SDS011;63139;52.018;8.552;2023-03-03T08:04:15;69.82;;;21.52;;
74632;SDS011;63139;52.018;8.552;2023-03-03T08:06:47;68.40;;;20.98;;
74632;SDS011;63139;52.018;8.552;2023-03-03T08:09:24;67.82;;;21.92;;
74632;SDS011;63139;52.018;8.552;2023-03-03T08:12:14;64.47;;;20.20;;
74632;SDS011;63139;52.018;8.552;2023-03-03T08:14:56;70.05;;;21.15;;
74632;SDS011;63139;52.018;8.552;2023-03-03T08:17:28;64.65;;;19.85;;
74632;SDS011;63139;52.018;8.552;2023-03-03T08:22:38;50.45;;;16.38;;
74632;SDS011;63139;52.018;8.552;2023-03-03T08:25:06;58.83;;;19.15;;
74632;SDS011;63139;52.018;8.552;2023-03-03T08:27:34;64.50;;;19.98;;
74632;SDS011;63139;52.018;8.552;2023-03-03T08:30:03;60.55;;;19.50;;
74632;SDS011;63139;52.018;8.552;2023-03-03T08:32:31;52.92;;;17.02;;
74632;SDS011;63139;52.018;8.552;2023-03-03T08:34:59;59.35;;;19.23;;
74632;SDS011;63139;52.018;8.552;2023-03-03T08:37:27;58.03;;;18.65;;
74632;SDS011;63139;52.018;8.552;2023-03-03T08:39:54;59.15;;;18.58;;
74632;SDS011;63139;52.018;8.552;2023-03-03T08:42:22;55.15;;;18.88;;
74632;SDS011;63139;52.018;8.552;2023-03-03T08:44:50;55.70;;;18.35;;
74632;SDS011;63139;52.018;8.552;2023-03-03T08:47:19;49.22;;;16.27;;
74632;SDS011;63139;52.018;8.552;2023-03-03T08:49:47;50.38;;;18.08;;
74632;SDS011;63139;52.018;8.552;2023-03-03T08:52:15;60.53;;;19.67;;
74632;SDS011;63139;52.018;8.552;2023-03-03T08:54:43;50.92;;;15.90;;
74632;SDS011;63139;52.018;8.552;2023-03-03T08:57:10;48.00;;;16.42;;
74632;SDS011;63139;52.018;8.552;2023-03-03T08:59:38;53.97;;;18.23;;
74632;SDS011;63139;52.018;8.552;2023-03-03T09:02:06;52.67;;;17.15;;
74632;SDS011;63139;52.018;8.552;2023-03-03T09:04:36;50.67;;;17.40;;
74632;SDS011;63139;52.018;8.552;2023-03-03T09:07:04;59.25;;;20.25;;
74632;SDS011;63139;52.018;8.552;2023-03-03T09:09:32;51.05;;;17.45;;
74632;SDS011;63139;52.018;8.552;2023-03-03T09:12:02;53.28;;;17.50;;
74632;SDS011;63139;52.018;8.552;2023-03-03T09:14:39;56.60;;;19.13;;
74632;SDS011;63139;52.018;8.552;2023-03-03T09:17:15;52.45;;;17.40;;
74632;SDS011;63139;52.018;8.552;2023-03-03T09:19:51;49.53;;;16.90;;
74632;SDS011;63139;52.018;8.552;2023-03-03T09:22:22;60.75;;;21.13;;
74632;SDS011;63139;52.018;8.552;2023-03-03T09:24:52;54.20;;;18.95;;
74632;SDS011;63139;52.018;8.552;2023-03-03T09:27:23;50.03;;;17.30;;
74632;SDS011;63139;52.018;8.552;2023-03-03T09:29:54;47.28;;;17.67;;
74632;SDS011;63139;52.018;8.552;2023-03-03T09:32:30;48.42;;;16.17;;
74632;SDS011;63139;52.018;8.552;2023-03-03T09:35:21;54.67;;;18.15;;
74632;SDS011;63139;52.018;8.552;2023-03-03T09:38:08;50.35;;;18.23;;
74632;SDS011;63139;52.018;8.552;2023-03-03T09:40:50;50.60;;;16.85;;
74632;SDS011;63139;52.018;8.552;2023-03-03T09:43:28;56.22;;;18.50;;
74632;SDS011;63139;52.018;8.552;2023-03-03T09:46:05;44.58;;;16.25;;
74632;SDS011;63139;52.018;8.552;2023-03-03T09:48:41;44.63;;;15.02;;
74632;SDS011;63139;52.018;8.552;2023-03-03T09:51:29;45.80;;;15.95;;
74632;SDS011;63139;52.018;8.552;2023-03-03T09:54:12;53.75;;;18.90;;
74632;SDS011;63139;52.018;8.552;2023-03-03T09:56:59;48.83;;;16.70;;
74632;SDS011;63139;52.018;8.552;2023-03-03T09:59:40;53.70;;;19.08;;
74632;SDS011;63139;52.018;8.552;2023-03-03T10:02:34;55.70;;;18.00;;
74632;SDS011;63139;52.018;8.552;2023-03-03T10:05:16;52.75;;;17.98;;
74632;SDS011;63139;52.018;8.552;2023-03-03T10:07:54;46.70;;;15.77;;
74632;SDS011;63139;52.018;8.552;2023-03-03T10:10:37;48.10;;;16.88;;
74632;SDS011;63139;52.018;8.552;2023-03-03T10:13:17;45.22;;;17.23;;
74632;SDS011;63139;52.018;8.552;2023-03-03T10:15:56;44.90;;;16.08;;
74632;SDS011;63139;52.018;8.552;2023-03-03T10:18:38;46.60;;;16.75;;
74632;SDS011;63139;52.018;8.552;2023-03-03T10:21:14;48.00;;;16.55;;
74632;SDS011;63139;52.018;8.552;2023-03-03T10:23:52;45.28;;;16.85;;
74632;SDS011;63139;52.018;8.552;2023-03-03T10:26:36;40.30;;;15.20;;
74632;SDS011;63139;52.018;8.552;2023-03-03T10:29:35;42.45;;;15.73;;
74632;SDS011;63139;52.018;8.552;2023-03-03T10:32:21;38.57;;;14.80;;
74632;SDS011;63139;52.018;8.552;2023-03-03T10:35:23;43.97;;;14.40;;
74632;SDS011;63139;52.018;8.552;2023-03-03T10:38:03;44.85;;;15.15;;
74632;SDS011;63139;52.018;8.552;2023-03-03T10:40:42;40.78;;;14.05;;
74632;SDS011;63139;52.018;8.552;2023-03-03T10:43:18;42.25;;;14.80;;
74632;SDS011;63139;52.018;8.552;2023-03-03T10:46:12;41.42;;;15.00;;
74632;SDS011;63139;52.018;8.552;2023-03-03T10:48:51;39.10;;;13.05;;
74632;SDS011;63139;52.018;8.552;2023-03-03T10:51:29;38.88;;;14.88;;
74632;SDS011;63139;52.018;8.552;2023-03-03T10:54:08;37.47;;;14.00;;
74632;SDS011;63139;52.018;8.552;2023-03-03T10:56:51;39.63;;;13.73;;
74632;SDS011;63139;52.018;8.552;2023-03-03T10:59:29;36.03;;;14.13;;
74632;SDS011;63139;52.018;8.552;2023-03-03T11:02:06;36.90;;;13.82;;
74632;SDS011;63139;52.018;8.552;2023-03-03T11:04:56;38.25;;;15.35;;
74632;SDS011;63139;52.018;8.552;2023-03-03T11:07:43;40.30;;;14.25;;
74632;SDS011;63139;52.018;8.552;2023-03-03T11:10:26;41.83;;;15.73;;
74632;SDS011;63139;52.018;8.552;2023-03-03T11:13:08;39.35;;;15.75;;
74632;SDS011;63139;52.018;8.552;2023-03-03T11:16:05;39.92;;;15.25;;
74632;SDS011;63139;52.018;8.552;2023-03-03T11:18:55;42.38;;;15.77;;
74632;SDS011;63139;52.018;8.552;2023-03-03T11:21:37;40.72;;;15.65;;
74632;SDS011;63139;52.018;8.552;2023-03-03T11:24:22;45.93;;;16.87;;
74632;SDS011;63139;52.018;8.552;2023-03-03T11:30:21;44.25;;;15.85;;
74632;SDS011;63139;52.018;8.552;2023-03-03T11:33:02;46.38;;;17.52;;
74632;SDS011;63139;52.018;8.552;2023-03-03T11:35:34;50.00;;;18.25;;
74632;SDS011;63139;52.018;8.552;2023-03-03T11:38:17;46.95;;;17.67;;
74632;SDS011;63139;52.018;8.552;2023-03-03T11:40:54;44.95;;;17.52;;
74632;SDS011;63139;52.018;8.552;2023-03-03T11:43:26;47.38;;;18.35;;
74632;SDS011;63139;52.018;8.552;2023-03-03T11:46:04;37.83;;;15.40;;
74632;SDS011;63139;52.018;8.552;2023-03-03T11:48:38;36.65;;;14.63;;
74632;SDS011;63139;52.018;8.552;2023-03-03T11:51:13;42.45;;;17.17;;
74632;SDS011;63139;52.018;8.552;2023-03-03T11:53:49;45.25;;;17.60;;
74632;SDS011;63139;52.018;8.552;2023-03-03T11:56:24;42.00;;;16.92;;
74632;SDS011;63139;52.018;8.552;2023-03-03T11:59:04;44.42;;;16.73;;
74632;SDS011;63139;52.018;8.552;2023-03-03T12:01:45;43.47;;;17.02;;
74632;SDS011;63139;52.018;8.552;2023-03-03T12:04:19;42.25;;;16.02;;
74632;SDS011;63139;52.018;8.552;2023-03-03T12:07:01;35.25;;;15.05;;
74632;SDS011;63139;52.018;8.552;2023-03-03T12:09:45;38.13;;;15.20;;
74632;SDS011;63139;52.018;8.552;2023-03-03T12:14:57;41.25;;;15.95;;
74632;SDS011;63139;52.018;8.552;2023-03-03T12:20:28;45.17;;;17.42;;
74632;SDS011;63139;52.018;8.552;2023-03-03T12:23:08;41.72;;;17.45;;
74632;SDS011;63139;52.018;8.552;2023-03-03T12:25:45;41.58;;;15.68;;
74632;SDS011;63139;52.018;8.552;2023-03-03T12:28:18;45.88;;;17.10;;
74632;SDS011;63139;52.018;8.552;2023-03-03T12:30:56;52.55;;;19.63;;
74632;SDS011;63139;52.018;8.552;2023-03-03T12:33:36;44.88;;;17.33;;
74632;SDS011;63139;52.018;8.552;2023-03-03T12:36:22;46.15;;;17.90;;
74632;SDS011;63139;52.018;8.552;2023-03-03T12:39:00;45.35;;;17.48;;
74632;SDS011;63139;52.018;8.552;2023-03-03T12:41:35;47.42;;;18.75;;
74632;SDS011;63139;52.018;8.552;2023-03-03T12:44:13;44.33;;;17.55;;
74632;SDS011;63139;52.018;8.552;2023-03-03T12:46:51;44.60;;;17.33;;
74632;SDS011;63139;52.018;8.552;2023-03-03T12:49:31;44.65;;;15.82;;
74632;SDS011;63139;52.018;8.552;2023-03-03T12:52:13;38.83;;;15.60;;
74632;SDS011;63139;52.018;8.552;2023-03-03T12:54:52;41.72;;;16.05;;
74632;SDS011;63139;52.018;8.552;2023-03-03T12:57:29;41.33;;;16.08;;
74632;SDS011;63139;52.018;8.552;2023-03-03T13:00:17;36.67;;;14.02;;
74632;SDS011;63139;52.018;8.552;2023-03-03T13:02:56;37.67;;;14.70;;
74632;SDS011;63139;52.018;8.552;2023-03-03T13:05:32;41.40;;;15.00;;
74632;SDS011;63139;52.018;8.552;2023-03-03T13:08:16;42.92;;;16.13;;
74632;SDS011;63139;52.018;8.552;2023-03-03T13:10:58;40.35;;;15.18;;
74632;SDS011;63139;52.018;8.552;2023-03-03T13:13:34;35.35;;;14.10;;
74632;SDS011;63139;52.018;8.552;2023-03-03T13:16:09;34.80;;;13.00;;
74632;SDS011;63139;52.018;8.552;2023-03-03T13:18:48;35.40;;;14.93;;
74632;SDS011;63139;52.018;8.552;2023-03-03T13:21:22;34.08;;;13.48;;
74632;SDS011;63139;52.018;8.552;2023-03-03T13:23:56;35.65;;;12.07;;
74632;SDS011;63139;52.018;8.552;2023-03-03T13:26:30;34.70;;;13.10;;
74632;SDS011;63139;52.018;8.552;2023-03-03T13:29:08;35.35;;;14.20;;
74632;SDS011;63139;52.018;8.552;2023-03-03T13:31:44;37.80;;;14.55;;
74632;SDS011;63139;52.018;8.552;2023-03-03T13:34:19;37.60;;;14.10;;
74632;SDS011;63139;52.018;8.552;2023-03-03T13:36:57;35.83;;;13.15;;
74632;SDS011;63139;52.018;8.552;2023-03-03T13:39:31;32.53;;;12.07;;
74632;SDS011;63139;52.018;8.552;2023-03-03T13:42:05;34.50;;;13.07;;
74632;SDS011;63139;52.018;8.552;2023-03-03T13:44:42;31.35;;;12.23;;
74632;SDS011;63139;52.018;8.552;2023-03-03T13:47:17;31.08;;;12.73;;
74632;SDS011;63139;52.018;8.552;2023-03-03T13:49:59;33.10;;;12.02;;
74632;SDS011;63139;52.018;8.552;2023-03-03T13:52:40;27.10;;;10.48;;
74632;SDS011;63139;52.018;8.552;2023-03-03T13:55:20;35.70;;;12.13;;
74632;SDS011;63139;52.018;8.552;2023-03-03T13:57:58;32.58;;;11.50;;
74632;SDS011;63139;52.018;8.552;2023-03-03T14:00:33;36.08;;;12.75;;
74632;SDS011;63139;52.018;8.552;2023-03-03T14:06:02;33.55;;;13.18;;
74632;SDS011;63139;52.018;8.552;2023-03-03T14:08:43;31.25;;;11.68;;
74632;SDS011;63139;52.018;8.552;2023-03-03T14:13:52;33.63;;;11.52;;
74632;SDS011;63139;52.018;8.552;2023-03-03T14:16:32;29.75;;;12.73;;
74632;SDS011;63139;52.018;8.552;2023-03-03T14:19:11;28.80;;;11.38;;
74632;SDS011;63139;52.018;8.552;2023-03-03T14:21:44;29.42;;;11.68;;
74632;SDS011;63139;52.018;8.552;2023-03-03T14:24:21;27.88;;;10.93;;
74632;SDS011;63139;52.018;8.552;2023-03-03T14:26:52;33.50;;;12.88;;
74632;SDS011;63139;52.018;8.552;2023-03-03T14:29:23;32.00;;;11.30;;
74632;SDS011;63139;52.018;8.552;2023-03-03T14:31:57;28.50;;;11.38;;
74632;SDS011;63139;52.018;8.552;2023-03-03T14:34:29;28.38;;;12.10;;
74632;SDS011;63139;52.018;8.552;2023-03-03T14:37:19;28.25;;;11.85;;
74632;SDS011;63139;52.018;8.552;2023-03-03T14:39:58;27.55;;;11.38;;
74632;SDS011;63139;52.018;8.552;2023-03-03T14:42:30;26.30;;;10.65;;
74632;SDS011;63139;52.018;8.552;2023-03-03T14:45:04;28.85;;;11.70;;
74632;SDS011;63139;52.018;8.552;2023-03-03T14:47:54;27.30;;;12.20;;
74632;SDS011;63139;52.018;8.552;2023-03-03T14:50:30;26.55;;;10.60;;
74632;SDS011;63139;52.018;8.552;2023-03-03T14:53:03;24.08;;;10.70;;
74632;SDS011;63139;52.018;8.552;2023-03-03T14:55:39;24.83;;;11.40;;
74632;SDS011;63139;52.018;8.552;2023-03-03T14:58:23;34.78;;;12.70;;
74632;SDS011;63139;52.018;8.552;2023-03-03T15:01:13;30.65;;;13.38;;
74632;SDS011;63139;52.018;8.552;2023-03-03T15:03:44;27.25;;;11.70;;
74632;SDS011;63139;52.018;8.552;2023-03-03T15:06:33;26.05;;;11.80;;
74632;SDS011;63139;52.018;8.552;2023-03-03T15:11:53;25.52;;;11.65;;
74632;SDS011;63139;52.018;8.552;2023-03-03T15:14:24;22.70;;;9.65;;
74632;SDS011;63139;52.018;8.552;2023-03-03T15:17:23;27.92;;;11.32;;
74632;SDS011;63139;52.018;8.552;2023-03-03T15:22:49;28.80;;;12.63;;